Eurasian Highway — 7JKY — position and weather

sailwx.info

Track history (hours):
 
Tides and Currents Weather Stations Pressure Air Temp Water Temp Dewpoint Dewpoint Depression Visibility Wind Speed Wind Dir Waves Ship Positions

Eurasian Highway

Last reported at 2015-Jul-03 04:30 UTC. Time now 2015-Jul-06 17:54 UTC.
Position N 32°11' W 079°50'.

Length 199 m; draft 8.2 m.

Type: Cargo ship. MMSI: 432839000.

Date/timePositionNaut miles runAvg speedWind from/ knotsBaromVisibWave heightAir tempDewpointWater temp
2015-Jul-03 04:30N 32°11' W 079°50'1213.1
2015-Jul-03 03:34N 32°01' W 079°59'21 0.6
2015-Jul-01 15:16N 31°41' W 079°49'23018.0
2015-Jul-01 02:31N 34°14' W 076°24'1817.1
2015-Jul-01 01:27N 34°26' W 076°08'1717.5
2015-Jul-01 00:30N 34°37' W 075°53'1617.2
2015-Jun-30 23:34N 34°48' W 075°38'1716.6
2015-Jun-30 22:33N 34°59' W 075°23'1715.0
2015-Jun-30 21:25N 35°13' W 075°11'7717.7
2015-Jun-30 17:05N 36°28' W 075°31'6814.8
2015-Jun-30 12:32N 37°31' W 076°03'1616.4
2015-Jun-30 11:33N 37°45' W 076°11'1817.7
2015-Jun-30 10:34N 38°03' W 076°13'1917.7
2015-Jun-30 09:28N 38°21' W 076°20'3216.6
2015-Jun-30 07:34N 38°53' W 076°24'1413.8
2015-Jun-30 06:33N 39°07' W 076°24'1010.1
2015-Jun-30 05:33N 39°14' W 076°33'1 1.3
2015-Jun-30 04:33N 39°15' W 076°32'0 0.0
2015-Jun-30 03:33N 39°15' W 076°32'0 0.0
2015-Jun-30 02:33N 39°15' W 076°32'0 0.0
2015-Jun-30 01:33N 39°15' W 076°32'0 0.0
2015-Jun-30 00:33N 39°15' W 076°32'0 0.0
2015-Jun-29 23:33N 39°15' W 076°32'0 0.0
2015-Jun-29 22:33N 39°15' W 076°32'1 1.2
2015-Jun-29 21:33N 39°15' W 076°34'1 0.9
2015-Jun-29 20:32N 39°15' W 076°35'0 0.0
2015-Jun-29 19:32N 39°15' W 076°35'0 0.0
2015-Jun-29 18:32N 39°15' W 076°35'0 0.0
2015-Jun-29 17:32N 39°15' W 076°35'0 0.0
2015-Jun-29 16:32N 39°15' W 076°35'0 0.0
2015-Jun-29 15:32N 39°15' W 076°35'0 0.0
2015-Jun-29 14:32N 39°15' W 076°35'0 0.0
2015-Jun-29 13:32N 39°15' W 076°35'0 0.0
2015-Jun-29 12:29N 39°15' W 076°35'0 0.0
2015-Jun-29 11:34N 39°15' W 076°35'5 4.7
2015-Jun-29 10:33N 39°12' W 076°30'1211.8
2015-Jun-29 09:34N 39°02' W 076°23'1716.7
2015-Jun-29 08:34N 38°45' W 076°26'4017.6
2015-Jun-29 06:16N 38°06' W 076°13'  
2015-Jun-23 18:36N 43°49' W 031°07'  
Track history (hours):
 
Tides and Currents Weather Stations Pressure Air Temp Water Temp Dewpoint Dewpoint Depression Visibility Wind Speed Wind Dir Waves Ship Positions

Eurasian Highway

Last reported at 2015-Jul-03 04:30 UTC. Time now 2015-Jul-06 17:54 UTC.
Position N 32°11' W 079°50'.

Length 199 m; draft 8.2 m.

Type: Cargo ship. MMSI: 432839000.

Date/timePositionNaut miles runAvg speedWind from/ knotsBaromVisibWave heightAir tempDewpointWater temp
2015-Jul-03 04:30N 32°11' W 079°50'1213.1
2015-Jul-03 03:34N 32°01' W 079°59'21 0.6
2015-Jul-01 15:16N 31°41' W 079°49'23018.0
2015-Jul-01 02:31N 34°14' W 076°24'1817.1
2015-Jul-01 01:27N 34°26' W 076°08'1717.5
2015-Jul-01 00:30N 34°37' W 075°53'1617.2
2015-Jun-30 23:34N 34°48' W 075°38'1716.6
2015-Jun-30 22:33N 34°59' W 075°23'1715.0
2015-Jun-30 21:25N 35°13' W 075°11'7717.7
2015-Jun-30 17:05N 36°28' W 075°31'6814.8
2015-Jun-30 12:32N 37°31' W 076°03'1616.4
2015-Jun-30 11:33N 37°45' W 076°11'1817.7
2015-Jun-30 10:34N 38°03' W 076°13'1917.7
2015-Jun-30 09:28N 38°21' W 076°20'3216.6
2015-Jun-30 07:34N 38°53' W 076°24'1413.8
2015-Jun-30 06:33N 39°07' W 076°24'1010.1
2015-Jun-30 05:33N 39°14' W 076°33'1 1.3
2015-Jun-30 04:33N 39°15' W 076°32'0 0.0
2015-Jun-30 03:33N 39°15' W 076°32'0 0.0
2015-Jun-30 02:33N 39°15' W 076°32'0 0.0
2015-Jun-30 01:33N 39°15' W 076°32'0 0.0
2015-Jun-30 00:33N 39°15' W 076°32'0 0.0
2015-Jun-29 23:33N 39°15' W 076°32'0 0.0
2015-Jun-29 22:33N 39°15' W 076°32'1 1.2
2015-Jun-29 21:33N 39°15' W 076°34'1 0.9
2015-Jun-29 20:32N 39°15' W 076°35'0 0.0
2015-Jun-29 19:32N 39°15' W 076°35'0 0.0
2015-Jun-29 18:32N 39°15' W 076°35'0 0.0
2015-Jun-29 17:32N 39°15' W 076°35'0 0.0
2015-Jun-29 16:32N 39°15' W 076°35'0 0.0
2015-Jun-29 15:32N 39°15' W 076°35'0 0.0
2015-Jun-29 14:32N 39°15' W 076°35'0 0.0
2015-Jun-29 13:32N 39°15' W 076°35'0 0.0
2015-Jun-29 12:29N 39°15' W 076°35'0 0.0
2015-Jun-29 11:34N 39°15' W 076°35'5 4.7
2015-Jun-29 10:33N 39°12' W 076°30'1211.8
2015-Jun-29 09:34N 39°02' W 076°23'1716.7
2015-Jun-29 08:34N 38°45' W 076°26'4017.6
2015-Jun-29 06:16N 38°06' W 076°13'  
2015-Jun-23 18:36N 43°49' W 031°07'  

Dump ship's entire track history